sensor_id;sensor_type;location;lat;lon;timestamp;P1;durP1;ratioP1;P2;durP2;ratioP2
45905;SDS011;31619;49.008;12.106;2023-04-25T00:00:09;2.03;;;1.92;;
45905;SDS011;31619;49.008;12.106;2023-04-25T00:02:35;2.47;;;2.17;;
45905;SDS011;31619;49.008;12.106;2023-04-25T00:05:01;2.08;;;1.98;;
45905;SDS011;31619;49.008;12.106;2023-04-25T00:07:28;2.17;;;2.08;;
45905;SDS011;31619;49.008;12.106;2023-04-25T00:09:53;2.30;;;2.20;;
45905;SDS011;31619;49.008;12.106;2023-04-25T00:12:19;2.10;;;1.98;;
45905;SDS011;31619;49.008;12.106;2023-04-25T00:14:46;2.58;;;2.00;;
45905;SDS011;31619;49.008;12.106;2023-04-25T00:17:14;2.30;;;2.15;;
45905;SDS011;31619;49.008;12.106;2023-04-25T00:19:41;2.30;;;2.10;;
45905;SDS011;31619;49.008;12.106;2023-04-25T00:22:07;2.30;;;2.20;;
45905;SDS011;31619;49.008;12.106;2023-04-25T00:24:33;2.58;;;2.40;;
45905;SDS011;31619;49.008;12.106;2023-04-25T00:26:58;2.10;;;2.00;;
45905;SDS011;31619;49.008;12.106;2023-04-25T00:29:24;2.42;;;2.33;;
45905;SDS011;31619;49.008;12.106;2023-04-25T00:31:49;2.53;;;2.33;;
45905;SDS011;31619;49.008;12.106;2023-04-25T00:34:15;2.65;;;2.33;;
45905;SDS011;31619;49.008;12.106;2023-04-25T00:36:40;2.55;;;2.45;;
45905;SDS011;31619;49.008;12.106;2023-04-25T00:39:06;2.63;;;2.53;;
45905;SDS011;31619;49.008;12.106;2023-04-25T00:41:32;2.35;;;2.25;;
45905;SDS011;31619;49.008;12.106;2023-04-25T00:43:58;2.60;;;2.40;;
45905;SDS011;31619;49.008;12.106;2023-04-25T00:46:25;3.20;;;2.45;;
45905;SDS011;31619;49.008;12.106;2023-04-25T00:48:51;3.05;;;2.50;;
45905;SDS011;31619;49.008;12.106;2023-04-25T00:51:19;5.43;;;2.78;;
45905;SDS011;31619;49.008;12.106;2023-04-25T00:53:45;3.20;;;3.00;;
45905;SDS011;31619;49.008;12.106;2023-04-25T00:56:13;3.00;;;2.80;;
45905;SDS011;31619;49.008;12.106;2023-04-25T00:58:39;3.95;;;3.60;;
45905;SDS011;31619;49.008;12.106;2023-04-25T01:01:06;2.58;;;2.38;;
45905;SDS011;31619;49.008;12.106;2023-04-25T01:03:32;3.10;;;2.90;;
45905;SDS011;31619;49.008;12.106;2023-04-25T01:06:00;3.15;;;2.85;;
45905;SDS011;31619;49.008;12.106;2023-04-25T01:08:26;3.15;;;2.90;;
45905;SDS011;31619;49.008;12.106;2023-04-25T01:10:52;2.80;;;2.70;;
45905;SDS011;31619;49.008;12.106;2023-04-25T01:13:18;3.53;;;2.80;;
45905;SDS011;31619;49.008;12.106;2023-04-25T01:15:43;2.58;;;2.47;;
45905;SDS011;31619;49.008;12.106;2023-04-25T01:18:09;3.25;;;2.88;;
45905;SDS011;31619;49.008;12.106;2023-04-25T01:20:35;2.70;;;2.60;;
45905;SDS011;31619;49.008;12.106;2023-04-25T01:23:03;2.70;;;2.50;;
45905;SDS011;31619;49.008;12.106;2023-04-25T01:25:32;2.80;;;2.60;;
45905;SDS011;31619;49.008;12.106;2023-04-25T01:27:58;2.85;;;2.65;;
45905;SDS011;31619;49.008;12.106;2023-04-25T01:30:25;2.70;;;2.50;;
45905;SDS011;31619;49.008;12.106;2023-04-25T01:32:51;2.58;;;2.47;;
45905;SDS011;31619;49.008;12.106;2023-04-25T01:35:19;2.90;;;2.70;;
45905;SDS011;31619;49.008;12.106;2023-04-25T01:37:45;2.92;;;2.83;;
45905;SDS011;31619;49.008;12.106;2023-04-25T01:40:11;2.72;;;2.53;;
45905;SDS011;31619;49.008;12.106;2023-04-25T01:42:39;2.65;;;2.47;;
45905;SDS011;31619;49.008;12.106;2023-04-25T01:45:06;2.55;;;2.40;;
45905;SDS011;31619;49.008;12.106;2023-04-25T01:47:32;2.40;;;2.30;;
45905;SDS011;31619;49.008;12.106;2023-04-25T01:50:00;2.97;;;2.78;;
45905;SDS011;31619;49.008;12.106;2023-04-25T01:52:26;2.83;;;2.63;;
45905;SDS011;31619;49.008;12.106;2023-04-25T01:54:52;2.88;;;2.70;;
45905;SDS011;31619;49.008;12.106;2023-04-25T01:57:19;3.03;;;2.83;;
45905;SDS011;31619;49.008;12.106;2023-04-25T01:59:44;3.00;;;2.40;;
45905;SDS011;31619;49.008;12.106;2023-04-25T02:02:11;3.03;;;2.80;;
45905;SDS011;31619;49.008;12.106;2023-04-25T02:04:36;3.22;;;3.00;;
45905;SDS011;31619;49.008;12.106;2023-04-25T02:07:03;2.67;;;2.53;;
45905;SDS011;31619;49.008;12.106;2023-04-25T02:09:28;3.45;;;3.22;;
45905;SDS011;31619;49.008;12.106;2023-04-25T02:11:54;2.85;;;2.65;;
45905;SDS011;31619;49.008;12.106;2023-04-25T02:14:20;2.78;;;2.53;;
45905;SDS011;31619;49.008;12.106;2023-04-25T02:16:45;3.10;;;2.90;;
45905;SDS011;31619;49.008;12.106;2023-04-25T02:19:11;3.33;;;3.03;;
45905;SDS011;31619;49.008;12.106;2023-04-25T02:21:37;2.45;;;2.35;;
45905;SDS011;31619;49.008;12.106;2023-04-25T02:24:03;3.25;;;2.95;;
45905;SDS011;31619;49.008;12.106;2023-04-25T02:26:29;3.30;;;3.05;;
45905;SDS011;31619;49.008;12.106;2023-04-25T02:28:56;3.92;;;3.03;;
45905;SDS011;31619;49.008;12.106;2023-04-25T02:31:22;2.83;;;2.70;;
45905;SDS011;31619;49.008;12.106;2023-04-25T02:33:48;2.70;;;2.38;;
45905;SDS011;31619;49.008;12.106;2023-04-25T02:36:13;2.83;;;2.47;;
45905;SDS011;31619;49.008;12.106;2023-04-25T02:38:39;3.03;;;2.78;;
45905;SDS011;31619;49.008;12.106;2023-04-25T02:41:05;3.10;;;2.90;;
45905;SDS011;31619;49.008;12.106;2023-04-25T02:43:31;2.92;;;2.72;;
45905;SDS011;31619;49.008;12.106;2023-04-25T02:45:56;3.05;;;2.85;;
45905;SDS011;31619;49.008;12.106;2023-04-25T02:48:22;2.78;;;2.58;;
45905;SDS011;31619;49.008;12.106;2023-04-25T02:50:48;4.28;;;2.75;;
45905;SDS011;31619;49.008;12.106;2023-04-25T02:53:13;3.30;;;3.10;;
45905;SDS011;31619;49.008;12.106;2023-04-25T02:55:39;3.72;;;3.42;;
45905;SDS011;31619;49.008;12.106;2023-04-25T02:58:05;3.20;;;3.00;;
45905;SDS011;31619;49.008;12.106;2023-04-25T03:00:30;3.20;;;2.60;;
45905;SDS011;31619;49.008;12.106;2023-04-25T03:02:56;2.72;;;2.63;;
45905;SDS011;31619;49.008;12.106;2023-04-25T03:05:22;3.00;;;2.80;;
45905;SDS011;31619;49.008;12.106;2023-04-25T03:07:47;3.50;;;3.20;;
45905;SDS011;31619;49.008;12.106;2023-04-25T03:10:13;2.67;;;2.58;;
45905;SDS011;31619;49.008;12.106;2023-04-25T03:12:38;3.00;;;2.80;;
45905;SDS011;31619;49.008;12.106;2023-04-25T03:15:04;5.85;;;2.90;;
45905;SDS011;31619;49.008;12.106;2023-04-25T03:17:30;2.72;;;2.53;;
45905;SDS011;31619;49.008;12.106;2023-04-25T03:19:56;3.00;;;2.90;;
45905;SDS011;31619;49.008;12.106;2023-04-25T03:22:23;3.17;;;2.67;;
45905;SDS011;31619;49.008;12.106;2023-04-25T03:24:49;3.00;;;2.80;;
45905;SDS011;31619;49.008;12.106;2023-04-25T03:27:15;3.00;;;2.80;;
45905;SDS011;31619;49.008;12.106;2023-04-25T03:29:41;3.13;;;2.85;;
45905;SDS011;31619;49.008;12.106;2023-04-25T03:32:06;3.05;;;2.85;;
45905;SDS011;31619;49.008;12.106;2023-04-25T03:34:32;2.92;;;2.72;;
45905;SDS011;31619;49.008;12.106;2023-04-25T03:36:57;3.28;;;3.08;;
45905;SDS011;31619;49.008;12.106;2023-04-25T03:39:23;2.50;;;2.40;;
45905;SDS011;31619;49.008;12.106;2023-04-25T03:41:49;3.97;;;2.60;;
45905;SDS011;31619;49.008;12.106;2023-04-25T03:44:14;3.08;;;2.88;;
45905;SDS011;31619;49.008;12.106;2023-04-25T03:46:40;3.20;;;2.53;;
45905;SDS011;31619;49.008;12.106;2023-04-25T03:49:05;3.92;;;2.95;;
45905;SDS011;31619;49.008;12.106;2023-04-25T03:51:31;2.90;;;2.70;;
45905;SDS011;31619;49.008;12.106;2023-04-25T03:53:57;2.88;;;2.67;;
45905;SDS011;31619;49.008;12.106;2023-04-25T03:56:22;2.83;;;2.63;;
45905;SDS011;31619;49.008;12.106;2023-04-25T03:58:48;2.72;;;2.60;;
45905;SDS011;31619;49.008;12.106;2023-04-25T04:01:14;2.60;;;2.35;;
45905;SDS011;31619;49.008;12.106;2023-04-25T04:03:39;2.85;;;2.67;;
45905;SDS011;31619;49.008;12.106;2023-04-25T04:06:05;3.60;;;2.50;;
45905;SDS011;31619;49.008;12.106;2023-04-25T04:08:32;4.32;;;2.60;;
45905;SDS011;31619;49.008;12.106;2023-04-25T04:10:58;2.55;;;2.35;;
45905;SDS011;31619;49.008;12.106;2023-04-25T04:13:27;2.97;;;2.35;;
45905;SDS011;31619;49.008;12.106;2023-04-25T04:15:54;3.03;;;2.83;;
45905;SDS011;31619;49.008;12.106;2023-04-25T04:18:20;2.88;;;2.58;;
45905;SDS011;31619;49.008;12.106;2023-04-25T04:20:46;3.00;;;2.80;;
45905;SDS011;31619;49.008;12.106;2023-04-25T04:23:12;2.90;;;2.70;;
45905;SDS011;31619;49.008;12.106;2023-04-25T04:25:37;2.78;;;2.58;;
45905;SDS011;31619;49.008;12.106;2023-04-25T04:28:04;2.78;;;2.58;;
45905;SDS011;31619;49.008;12.106;2023-04-25T04:30:31;2.88;;;2.67;;
45905;SDS011;31619;49.008;12.106;2023-04-25T04:32:58;2.75;;;2.65;;
45905;SDS011;31619;49.008;12.106;2023-04-25T04:35:23;2.90;;;2.60;;
45905;SDS011;31619;49.008;12.106;2023-04-25T04:37:49;5.45;;;2.78;;
45905;SDS011;31619;49.008;12.106;2023-04-25T04:40:16;2.83;;;2.60;;
45905;SDS011;31619;49.008;12.106;2023-04-25T04:42:42;3.05;;;2.85;;
45905;SDS011;31619;49.008;12.106;2023-04-25T04:45:10;2.75;;;2.55;;
45905;SDS011;31619;49.008;12.106;2023-04-25T04:47:37;4.05;;;2.90;;
45905;SDS011;31619;49.008;12.106;2023-04-25T04:50:04;3.20;;;2.47;;
45905;SDS011;31619;49.008;12.106;2023-04-25T04:52:33;2.50;;;2.40;;
45905;SDS011;31619;49.008;12.106;2023-04-25T04:54:59;3.03;;;2.80;;
45905;SDS011;31619;49.008;12.106;2023-04-25T04:57:25;3.30;;;3.10;;
45905;SDS011;31619;49.008;12.106;2023-04-25T04:59:51;3.63;;;3.33;;
45905;SDS011;31619;49.008;12.106;2023-04-25T05:02:17;3.65;;;3.45;;
45905;SDS011;31619;49.008;12.106;2023-04-25T05:04:42;3.78;;;3.47;;
45905;SDS011;31619;49.008;12.106;2023-04-25T05:07:08;3.42;;;3.17;;
45905;SDS011;31619;49.008;12.106;2023-04-25T05:09:34;4.03;;;3.72;;
45905;SDS011;31619;49.008;12.106;2023-04-25T05:11:59;4.25;;;3.70;;
45905;SDS011;31619;49.008;12.106;2023-04-25T05:14:26;4.00;;;3.70;;
45905;SDS011;31619;49.008;12.106;2023-04-25T05:16:51;4.18;;;3.60;;
45905;SDS011;31619;49.008;12.106;2023-04-25T05:19:17;4.28;;;3.88;;
45905;SDS011;31619;49.008;12.106;2023-04-25T05:21:43;5.68;;;3.50;;
45905;SDS011;31619;49.008;12.106;2023-04-25T05:24:09;5.07;;;4.25;;
45905;SDS011;31619;49.008;12.106;2023-04-25T05:26:34;4.25;;;3.70;;
45905;SDS011;31619;49.008;12.106;2023-04-25T05:29:00;4.45;;;4.03;;
45905;SDS011;31619;49.008;12.106;2023-04-25T05:31:25;3.85;;;3.40;;
45905;SDS011;31619;49.008;12.106;2023-04-25T05:33:51;3.72;;;3.42;;
45905;SDS011;31619;49.008;12.106;2023-04-25T05:36:18;3.65;;;3.38;;
45905;SDS011;31619;49.008;12.106;2023-04-25T05:38:44;3.80;;;3.47;;
45905;SDS011;31619;49.008;12.106;2023-04-25T05:41:10;3.78;;;3.47;;
45905;SDS011;31619;49.008;12.106;2023-04-25T05:43:36;4.25;;;3.50;;
45905;SDS011;31619;49.008;12.106;2023-04-25T05:46:01;3.85;;;3.55;;
45905;SDS011;31619;49.008;12.106;2023-04-25T05:48:27;4.15;;;3.65;;
45905;SDS011;31619;49.008;12.106;2023-04-25T05:50:52;3.80;;;3.38;;
45905;SDS011;31619;49.008;12.106;2023-04-25T05:53:18;4.25;;;3.80;;
45905;SDS011;31619;49.008;12.106;2023-04-25T05:55:45;4.00;;;3.70;;
45905;SDS011;31619;49.008;12.106;2023-04-25T05:58:11;4.22;;;3.22;;
45905;SDS011;31619;49.008;12.106;2023-04-25T06:00:37;3.50;;;3.20;;
45905;SDS011;31619;49.008;12.106;2023-04-25T06:03:03;4.07;;;3.38;;
45905;SDS011;31619;49.008;12.106;2023-04-25T06:05:29;3.90;;;3.10;;
45905;SDS011;31619;49.008;12.106;2023-04-25T06:07:55;4.32;;;3.50;;
45905;SDS011;31619;49.008;12.106;2023-04-25T06:10:20;3.65;;;3.35;;
45905;SDS011;31619;49.008;12.106;2023-04-25T06:12:47;2.83;;;2.63;;
45905;SDS011;31619;49.008;12.106;2023-04-25T06:15:13;3.45;;;2.88;;
45905;SDS011;31619;49.008;12.106;2023-04-25T06:17:38;3.03;;;2.83;;
45905;SDS011;31619;49.008;12.106;2023-04-25T06:20:04;3.90;;;3.03;;
45905;SDS011;31619;49.008;12.106;2023-04-25T06:22:31;3.50;;;2.70;;
45905;SDS011;31619;49.008;12.106;2023-04-25T06:24:56;2.65;;;2.47;;
45905;SDS011;31619;49.008;12.106;2023-04-25T06:27:23;2.55;;;2.38;;
45905;SDS011;31619;49.008;12.106;2023-04-25T06:29:49;3.00;;;2.80;;
45905;SDS011;31619;49.008;12.106;2023-04-25T06:32:15;3.70;;;2.63;;
45905;SDS011;31619;49.008;12.106;2023-04-25T06:34:40;2.25;;;2.15;;
45905;SDS011;31619;49.008;12.106;2023-04-25T06:37:06;2.83;;;2.63;;
45905;SDS011;31619;49.008;12.106;2023-04-25T06:39:31;2.40;;;2.30;;
45905;SDS011;31619;49.008;12.106;2023-04-25T06:41:57;2.88;;;2.58;;
45905;SDS011;31619;49.008;12.106;2023-04-25T06:44:23;2.78;;;2.38;;
45905;SDS011;31619;49.008;12.106;2023-04-25T06:46:49;2.50;;;2.40;;
45905;SDS011;31619;49.008;12.106;2023-04-25T06:49:14;2.70;;;2.50;;
45905;SDS011;31619;49.008;12.106;2023-04-25T06:51:40;2.42;;;2.30;;
45905;SDS011;31619;49.008;12.106;2023-04-25T06:54:06;2.78;;;2.53;;
45905;SDS011;31619;49.008;12.106;2023-04-25T06:56:31;3.17;;;2.45;;
45905;SDS011;31619;49.008;12.106;2023-04-25T06:58:57;2.78;;;2.47;;
45905;SDS011;31619;49.008;12.106;2023-04-25T07:01:23;3.00;;;2.55;;
45905;SDS011;31619;49.008;12.106;2023-04-25T07:03:48;2.60;;;2.50;;
45905;SDS011;31619;49.008;12.106;2023-04-25T07:06:14;4.05;;;2.50;;
45905;SDS011;31619;49.008;12.106;2023-04-25T07:08:40;2.50;;;2.30;;
45905;SDS011;31619;49.008;12.106;2023-04-25T07:11:06;4.53;;;2.17;;
45905;SDS011;31619;49.008;12.106;2023-04-25T07:13:31;2.60;;;2.35;;
45905;SDS011;31619;49.008;12.106;2023-04-25T07:15:57;2.65;;;2.47;;
45905;SDS011;31619;49.008;12.106;2023-04-25T07:18:23;2.83;;;2.63;;
45905;SDS011;31619;49.008;12.106;2023-04-25T07:20:48;2.50;;;2.40;;
45905;SDS011;31619;49.008;12.106;2023-04-25T07:23:14;2.65;;;2.42;;
45905;SDS011;31619;49.008;12.106;2023-04-25T07:25:40;2.70;;;2.50;;
45905;SDS011;31619;49.008;12.106;2023-04-25T07:28:06;2.40;;;2.20;;
45905;SDS011;31619;49.008;12.106;2023-04-25T07:30:31;3.72;;;2.97;;
45905;SDS011;31619;49.008;12.106;2023-04-25T07:32:57;2.47;;;2.28;;
45905;SDS011;31619;49.008;12.106;2023-04-25T07:35:22;2.45;;;2.35;;
45905;SDS011;31619;49.008;12.106;2023-04-25T07:37:58;2.58;;;2.15;;
45905;SDS011;31619;49.008;12.106;2023-04-25T07:40:24;1.77;;;1.70;;
45905;SDS011;31619;49.008;12.106;2023-04-25T07:42:50;2.92;;;2.30;;
45905;SDS011;31619;49.008;12.106;2023-04-25T07:45:15;2.55;;;2.35;;
45905;SDS011;31619;49.008;12.106;2023-04-25T07:47:43;2.72;;;2.53;;
45905;SDS011;31619;49.008;12.106;2023-04-25T07:50:09;2.42;;;2.22;;
45905;SDS011;31619;49.008;12.106;2023-04-25T07:52:35;2.53;;;2.28;;
45905;SDS011;31619;49.008;12.106;2023-04-25T07:55:01;2.90;;;2.58;;
45905;SDS011;31619;49.008;12.106;2023-04-25T07:57:28;3.13;;;2.92;;
45905;SDS011;31619;49.008;12.106;2023-04-25T07:59:54;2.58;;;2.38;;
45905;SDS011;31619;49.008;12.106;2023-04-25T08:02:20;2.30;;;2.10;;
45905;SDS011;31619;49.008;12.106;2023-04-25T08:04:45;2.65;;;2.55;;
45905;SDS011;31619;49.008;12.106;2023-04-25T08:07:11;3.25;;;2.33;;
45905;SDS011;31619;49.008;12.106;2023-04-25T08:09:37;2.38;;;2.28;;
45905;SDS011;31619;49.008;12.106;2023-04-25T08:12:03;2.38;;;2.25;;
45905;SDS011;31619;49.008;12.106;2023-04-25T08:14:29;2.40;;;2.30;;
45905;SDS011;31619;49.008;12.106;2023-04-25T08:17:00;2.42;;;2.13;;
45905;SDS011;31619;49.008;12.106;2023-04-25T08:19:28;2.22;;;2.03;;
45905;SDS011;31619;49.008;12.106;2023-04-25T08:21:54;2.33;;;2.20;;
45905;SDS011;31619;49.008;12.106;2023-04-25T08:24:21;2.13;;;1.98;;
45905;SDS011;31619;49.008;12.106;2023-04-25T08:26:47;2.22;;;2.10;;
45905;SDS011;31619;49.008;12.106;2023-04-25T08:29:12;2.13;;;2.03;;
45905;SDS011;31619;49.008;12.106;2023-04-25T08:31:38;2.10;;;2.00;;
45905;SDS011;31619;49.008;12.106;2023-04-25T08:34:03;3.00;;;2.22;;
45905;SDS011;31619;49.008;12.106;2023-04-25T08:36:29;4.47;;;2.10;;
45905;SDS011;31619;49.008;12.106;2023-04-25T08:38:56;2.47;;;2.25;;
45905;SDS011;31619;49.008;12.106;2023-04-25T08:41:22;2.38;;;2.17;;
45905;SDS011;31619;49.008;12.106;2023-04-25T08:43:48;2.03;;;1.92;;
45905;SDS011;31619;49.008;12.106;2023-04-25T08:46:16;2.10;;;2.00;;
45905;SDS011;31619;49.008;12.106;2023-04-25T08:48:44;2.15;;;2.05;;
45905;SDS011;31619;49.008;12.106;2023-04-25T08:51:13;2.03;;;1.92;;
45905;SDS011;31619;49.008;12.106;2023-04-25T08:53:44;2.10;;;2.00;;
45905;SDS011;31619;49.008;12.106;2023-04-25T08:56:11;2.13;;;2.03;;
45905;SDS011;31619;49.008;12.106;2023-04-25T08:58:41;2.42;;;2.22;;
45905;SDS011;31619;49.008;12.106;2023-04-25T09:01:08;2.15;;;1.90;;
45905;SDS011;31619;49.008;12.106;2023-04-25T09:03:34;2.00;;;1.90;;
45905;SDS011;31619;49.008;12.106;2023-04-25T09:06:01;2.28;;;2.17;;
45905;SDS011;31619;49.008;12.106;2023-04-25T09:08:27;3.25;;;2.47;;
45905;SDS011;31619;49.008;12.106;2023-04-25T09:10:52;2.08;;;1.98;;
45905;SDS011;31619;49.008;12.106;2023-04-25T09:13:23;2.00;;;1.90;;
45905;SDS011;31619;49.008;12.106;2023-04-25T09:15:52;2.25;;;2.08;;
45905;SDS011;31619;49.008;12.106;2023-04-25T09:18:25;1.40;;;1.40;;
45905;SDS011;31619;49.008;12.106;2023-04-25T09:20:55;1.70;;;1.60;;
45905;SDS011;31619;49.008;12.106;2023-04-25T09:23:44;2.63;;;1.67;;
45905;SDS011;31619;49.008;12.106;2023-04-25T09:26:15;1.40;;;1.40;;
45905;SDS011;31619;49.008;12.106;2023-04-25T09:28:42;1.48;;;1.48;;
45905;SDS011;31619;49.008;12.106;2023-04-25T09:31:09;2.47;;;1.90;;
45905;SDS011;31619;49.008;12.106;2023-04-25T09:33:36;2.05;;;1.95;;
45905;SDS011;31619;49.008;12.106;2023-04-25T09:36:04;2.72;;;2.53;;
45905;SDS011;31619;49.008;12.106;2023-04-25T09:38:32;2.28;;;2.15;;
45905;SDS011;31619;49.008;12.106;2023-04-25T09:41:05;2.38;;;2.28;;
45905;SDS011;31619;49.008;12.106;2023-04-25T09:43:32;1.98;;;1.88;;
45905;SDS011;31619;49.008;12.106;2023-04-25T09:45:58;1.30;;;1.30;;
45905;SDS011;31619;49.008;12.106;2023-04-25T09:48:25;1.35;;;1.35;;
45905;SDS011;31619;49.008;12.106;2023-04-25T09:51:05;1.30;;;1.30;;
45905;SDS011;31619;49.008;12.106;2023-04-25T09:53:35;1.35;;;1.35;;
45905;SDS011;31619;49.008;12.106;2023-04-25T09:56:06;2.30;;;2.20;;
45905;SDS011;31619;49.008;12.106;2023-04-25T09:58:34;2.35;;;2.15;;
45905;SDS011;31619;49.008;12.106;2023-04-25T10:01:03;2.22;;;2.13;;
45905;SDS011;31619;49.008;12.106;2023-04-25T10:03:31;2.20;;;2.10;;
45905;SDS011;31619;49.008;12.106;2023-04-25T10:06:00;2.00;;;1.90;;
45905;SDS011;31619;49.008;12.106;2023-04-25T10:08:30;2.03;;;1.92;;
45905;SDS011;31619;49.008;12.106;2023-04-25T10:11:00;2.47;;;2.38;;
45905;SDS011;31619;49.008;12.106;2023-04-25T10:13:28;2.08;;;1.98;;
45905;SDS011;31619;49.008;12.106;2023-04-25T10:15:58;1.90;;;1.80;;
45905;SDS011;31619;49.008;12.106;2023-04-25T10:18:26;1.85;;;1.75;;
45905;SDS011;31619;49.008;12.106;2023-04-25T10:20:53;1.75;;;1.70;;
45905;SDS011;31619;49.008;12.106;2023-04-25T10:23:30;2.60;;;2.22;;
45905;SDS011;31619;49.008;12.106;2023-04-25T10:25:56;1.98;;;1.88;;
45905;SDS011;31619;49.008;12.106;2023-04-25T10:28:23;1.65;;;1.55;;
45905;SDS011;31619;49.008;12.106;2023-04-25T10:30:59;1.50;;;1.50;;
45905;SDS011;31619;49.008;12.106;2023-04-25T10:33:29;2.45;;;2.35;;
45905;SDS011;31619;49.008;12.106;2023-04-25T10:36:08;4.25;;;2.60;;
45905;SDS011;31619;49.008;12.106;2023-04-25T10:38:43;3.28;;;2.67;;
45905;SDS011;31619;49.008;12.106;2023-04-25T10:41:10;3.35;;;3.05;;
45905;SDS011;31619;49.008;12.106;2023-04-25T10:46:13;3.10;;;2.85;;
45905;SDS011;31619;49.008;12.106;2023-04-25T10:48:44;2.90;;;2.70;;
45905;SDS011;31619;49.008;12.106;2023-04-25T10:51:16;2.97;;;2.78;;
45905;SDS011;31619;49.008;12.106;2023-04-25T10:53:57;3.88;;;2.92;;
45905;SDS011;31619;49.008;12.106;2023-04-25T10:56:30;3.40;;;3.17;;
45905;SDS011;31619;49.008;12.106;2023-04-25T10:59:08;2.70;;;2.50;;
45905;SDS011;31619;49.008;12.106;2023-04-25T11:01:44;2.70;;;2.60;;
45905;SDS011;31619;49.008;12.106;2023-04-25T11:04:24;2.80;;;2.60;;
45905;SDS011;31619;49.008;12.106;2023-04-25T11:09:35;2.58;;;2.38;;
45905;SDS011;31619;49.008;12.106;2023-04-25T11:12:04;2.40;;;2.28;;
45905;SDS011;31619;49.008;12.106;2023-04-25T11:14:30;3.83;;;1.80;;
45905;SDS011;31619;49.008;12.106;2023-04-25T11:16:56;1.77;;;1.67;;
45905;SDS011;31619;49.008;12.106;2023-04-25T11:19:23;1.23;;;1.23;;
45905;SDS011;31619;49.008;12.106;2023-04-25T11:21:49;1.33;;;1.33;;
45905;SDS011;31619;49.008;12.106;2023-04-25T11:24:18;2.08;;;1.80;;
45905;SDS011;31619;49.008;12.106;2023-04-25T11:26:46;1.90;;;1.80;;
45905;SDS011;31619;49.008;12.106;2023-04-25T11:29:15;1.70;;;1.60;;
45905;SDS011;31619;49.008;12.106;2023-04-25T11:31:43;1.05;;;1.05;;
45905;SDS011;31619;49.008;12.106;2023-04-25T11:34:10;1.58;;;1.23;;
45905;SDS011;31619;49.008;12.106;2023-04-25T11:36:36;1.80;;;1.70;;
45905;SDS011;31619;49.008;12.106;2023-04-25T11:39:04;1.73;;;1.63;;
45905;SDS011;31619;49.008;12.106;2023-04-25T11:41:30;1.55;;;1.40;;
45905;SDS011;31619;49.008;12.106;2023-04-25T11:43:56;1.33;;;1.20;;
45905;SDS011;31619;49.008;12.106;2023-04-25T11:46:22;1.20;;;1.20;;
45905;SDS011;31619;49.008;12.106;2023-04-25T11:48:47;1.80;;;1.70;;
45905;SDS011;31619;49.008;12.106;2023-04-25T11:51:15;1.20;;;1.20;;
45905;SDS011;31619;49.008;12.106;2023-04-25T11:53:41;1.52;;;1.45;;
45905;SDS011;31619;49.008;12.106;2023-04-25T11:56:09;1.55;;;1.45;;
45905;SDS011;31619;49.008;12.106;2023-04-25T12:01:31;1.48;;;1.48;;
45905;SDS011;31619;49.008;12.106;2023-04-25T12:03:58;1.60;;;1.50;;
45905;SDS011;31619;49.008;12.106;2023-04-25T12:06:38;1.55;;;1.45;;
45905;SDS011;31619;49.008;12.106;2023-04-25T12:09:06;2.00;;;1.30;;
45905;SDS011;31619;49.008;12.106;2023-04-25T12:11:42;2.25;;;1.40;;
45905;SDS011;31619;49.008;12.106;2023-04-25T12:14:09;1.67;;;1.67;;
45905;SDS011;31619;49.008;12.106;2023-04-25T12:16:45;1.52;;;1.42;;
45905;SDS011;31619;49.008;12.106;2023-04-25T12:19:15;1.50;;;1.40;;
45905;SDS011;31619;49.008;12.106;2023-04-25T12:21:42;1.45;;;1.35;;
45905;SDS011;31619;49.008;12.106;2023-04-25T12:29:22;1.75;;;1.67;;
45905;SDS011;31619;49.008;12.106;2023-04-25T12:31:49;1.63;;;1.52;;
45905;SDS011;31619;49.008;12.106;2023-04-25T12:34:16;1.92;;;1.77;;
45905;SDS011;31619;49.008;12.106;2023-04-25T12:36:42;1.48;;;1.40;;
45905;SDS011;31619;49.008;12.106;2023-04-25T12:39:08;3.28;;;1.52;;
45905;SDS011;31619;49.008;12.106;2023-04-25T12:41:33;2.05;;;1.90;;
45905;SDS011;31619;49.008;12.106;2023-04-25T12:43:59;2.20;;;1.73;;
45905;SDS011;31619;49.008;12.106;2023-04-25T12:46:25;1.60;;;1.50;;
45905;SDS011;31619;49.008;12.106;2023-04-25T12:48:50;1.95;;;1.83;;
45905;SDS011;31619;49.008;12.106;2023-04-25T12:51:16;1.60;;;1.50;;
45905;SDS011;31619;49.008;12.106;2023-04-25T12:53:41;2.17;;;1.50;;
45905;SDS011;31619;49.008;12.106;2023-04-25T12:56:07;2.00;;;1.90;;
45905;SDS011;31619;49.008;12.106;2023-04-25T12:58:33;1.65;;;1.52;;
45905;SDS011;31619;49.008;12.106;2023-04-25T13:01:00;1.55;;;1.45;;
45905;SDS011;31619;49.008;12.106;2023-04-25T13:03:25;1.70;;;1.60;;
45905;SDS011;31619;49.008;12.106;2023-04-25T13:05:51;2.10;;;1.40;;
45905;SDS011;31619;49.008;12.106;2023-04-25T13:08:20;1.60;;;1.50;;
45905;SDS011;31619;49.008;12.106;2023-04-25T13:10:49;1.80;;;1.70;;
45905;SDS011;31619;49.008;12.106;2023-04-25T13:13:15;1.40;;;1.40;;
45905;SDS011;31619;49.008;12.106;2023-04-25T13:15:41;2.10;;;1.85;;
45905;SDS011;31619;49.008;12.106;2023-04-25T13:18:07;1.85;;;1.63;;
45905;SDS011;31619;49.008;12.106;2023-04-25T13:20:32;1.70;;;1.60;;
45905;SDS011;31619;49.008;12.106;2023-04-25T13:22:58;3.05;;;1.55;;
45905;SDS011;31619;49.008;12.106;2023-04-25T13:25:24;2.03;;;1.92;;
45905;SDS011;31619;49.008;12.106;2023-04-25T13:27:50;1.98;;;1.60;;
45905;SDS011;31619;49.008;12.106;2023-04-25T13:30:15;1.63;;;1.52;;
45905;SDS011;31619;49.008;12.106;2023-04-25T13:32:41;3.15;;;1.60;;
45905;SDS011;31619;49.008;12.106;2023-04-25T13:35:08;1.80;;;1.70;;
45905;SDS011;31619;49.008;12.106;2023-04-25T13:37:35;2.05;;;1.95;;
45905;SDS011;31619;49.008;12.106;2023-04-25T13:40:01;3.40;;;2.05;;
45905;SDS011;31619;49.008;12.106;2023-04-25T13:42:30;2.50;;;1.80;;
45905;SDS011;31619;49.008;12.106;2023-04-25T13:44:56;2.55;;;2.38;;
45905;SDS011;31619;49.008;12.106;2023-04-25T13:47:22;3.40;;;2.25;;
45905;SDS011;31619;49.008;12.106;2023-04-25T13:49:48;2.75;;;2.35;;
45905;SDS011;31619;49.008;12.106;2023-04-25T13:52:14;2.60;;;2.10;;
45905;SDS011;31619;49.008;12.106;2023-04-25T13:54:40;3.50;;;1.80;;
45905;SDS011;31619;49.008;12.106;2023-04-25T13:57:05;4.40;;;2.10;;
45905;SDS011;31619;49.008;12.106;2023-04-25T13:59:31;2.10;;;2.00;;
45905;SDS011;31619;49.008;12.106;2023-04-25T14:01:57;3.30;;;2.58;;
45905;SDS011;31619;49.008;12.106;2023-04-25T14:04:23;2.40;;;2.00;;
45905;SDS011;31619;49.008;12.106;2023-04-25T14:06:50;2.47;;;2.00;;
45905;SDS011;31619;49.008;12.106;2023-04-25T14:09:16;2.05;;;1.88;;
45905;SDS011;31619;49.008;12.106;2023-04-25T14:11:42;4.22;;;2.15;;
45905;SDS011;31619;49.008;12.106;2023-04-25T14:14:07;2.92;;;1.77;;
45905;SDS011;31619;49.008;12.106;2023-04-25T14:16:33;4.10;;;2.20;;
45905;SDS011;31619;49.008;12.106;2023-04-25T14:19:00;5.57;;;1.75;;
45905;SDS011;31619;49.008;12.106;2023-04-25T14:21:26;1.73;;;1.63;;
45905;SDS011;31619;49.008;12.106;2023-04-25T14:23:53;1.75;;;1.60;;
45905;SDS011;31619;49.008;12.106;2023-04-25T14:26:19;2.45;;;1.60;;
45905;SDS011;31619;49.008;12.106;2023-04-25T14:28:44;2.00;;;1.77;;
45905;SDS011;31619;49.008;12.106;2023-04-25T14:31:10;1.75;;;1.30;;
45905;SDS011;31619;49.008;12.106;2023-04-25T14:33:36;1.58;;;1.40;;
45905;SDS011;31619;49.008;12.106;2023-04-25T14:36:04;1.35;;;1.25;;
45905;SDS011;31619;49.008;12.106;2023-04-25T14:38:30;1.15;;;1.05;;
45905;SDS011;31619;49.008;12.106;2023-04-25T14:40:56;1.25;;;1.15;;
45905;SDS011;31619;49.008;12.106;2023-04-25T14:43:21;1.70;;;1.60;;